Time;durP1;ratioP1;P1;durP2;ratioP2;P2;SDS_P1;SDS_P2;PMS_P1;PMS_P2;Temp;Humidity;BMP_temperature;BMP_pressure;BME280_temperature;BME280_humidity;BME280_pressure;Samples;Min_cycle;Max_cycle;Signal;HPM_P1;HPM_P2
2024/04/02 00:00:47;;;;;;;0.80;0.80;;;9.50;99.90;;;;;;5073563;28;20447;-79
2024/04/02 00:03:14;;;;;;;0.50;0.40;;;9.50;99.90;;;;;;5073101;28;20433;-79
2024/04/02 00:05:41;;;;;;;0.50;0.50;;;9.50;99.90;;;;;;5073118;28;20567;-80
2024/04/02 00:08:08;;;;;;;0.80;0.80;;;9.50;99.90;;;;;;5072973;28;20467;-81
2024/04/02 00:10:38;;;;;;;0.50;0.50;;;9.50;99.90;;;;;;5073439;28;20516;-80
2024/04/02 00:13:05;;;;;;;0.60;0.60;;;9.60;99.90;;;;;;5073109;28;20439;-80
2024/04/02 00:15:31;;;;;;;0.50;0.50;;;9.50;99.90;;;;;;5072531;28;20436;-80
2024/04/02 00:17:58;;;;;;;0.50;0.40;;;9.50;99.90;;;;;;5078030;28;20459;-81
2024/04/02 00:20:25;;;;;;;0.50;0.50;;;9.40;99.90;;;;;;5075830;28;20470;-81
2024/04/02 00:22:51;;;;;;;1.02;1.02;;;9.30;99.90;;;;;;5079900;28;20437;-79
2024/04/02 00:25:18;;;;;;;0.50;0.50;;;9.30;99.90;;;;;;5080510;28;20273;-79
2024/04/02 00:27:45;;;;;;;0.65;0.65;;;9.20;99.90;;;;;;5076658;28;20484;-81
2024/04/02 00:30:13;;;;;;;0.50;0.40;;;9.20;99.90;;;;;;5073980;28;20859;-80
2024/04/02 00:32:39;;;;;;;0.50;0.50;;;9.20;99.90;;;;;;5075214;28;20730;-81
2024/04/02 00:35:06;;;;;;;0.50;0.50;;;9.20;99.90;;;;;;5075564;28;20194;-81
2024/04/02 00:37:32;;;;;;;0.50;0.40;;;9.10;99.90;;;;;;5075558;28;20210;-80
2024/04/02 00:40:01;;;;;;;1.87;1.13;;;9.20;99.90;;;;;;5075397;28;20196;-81
2024/04/02 00:42:27;;;;;;;0.50;0.40;;;9.20;99.90;;;;;;5075130;28;20444;-81
2024/04/02 00:44:56;;;;;;;0.50;0.40;;;9.20;99.90;;;;;;5075337;28;20562;-81
2024/04/02 00:47:24;;;;;;;0.50;0.40;;;9.20;99.90;;;;;;5074572;28;20219;-81
2024/04/02 00:49:51;;;;;;;0.68;0.68;;;9.20;99.90;;;;;;5075455;28;20198;-81
2024/04/02 00:52:17;;;;;;;1.00;0.90;;;9.20;99.90;;;;;;5075343;28;20204;-81
2024/04/02 00:54:45;;;;;;;0.57;0.53;;;9.20;99.90;;;;;;5075852;28;20437;-81
2024/04/02 00:57:11;;;;;;;1.05;0.50;;;9.20;99.90;;;;;;5075391;28;20435;-81
2024/04/02 00:59:38;;;;;;;1.30;0.70;;;9.10;99.90;;;;;;5075100;28;20661;-81
2024/04/02 01:02:07;;;;;;;0.50;0.40;;;9.10;99.90;;;;;;5075171;28;20252;-81
2024/04/02 01:04:35;;;;;;;2.40;0.73;;;9.10;99.90;;;;;;5074980;28;20194;-81
2024/04/02 01:07:02;;;;;;;0.73;0.70;;;9.00;99.90;;;;;;5074743;28;20214;-79
2024/04/02 01:09:30;;;;;;;0.70;0.50;;;9.00;99.90;;;;;;5075203;28;20194;-80
2024/04/02 01:11:56;;;;;;;0.70;0.68;;;8.90;99.90;;;;;;5075061;28;20198;-81
2024/04/02 01:14:23;;;;;;;0.50;0.50;;;8.90;99.90;;;;;;5080238;28;20217;-78
2024/04/02 01:16:49;;;;;;;2.88;1.63;;;8.90;99.90;;;;;;5081906;28;20195;-79
2024/04/02 01:19:18;;;;;;;0.57;0.50;;;8.80;99.90;;;;;;5077908;28;20236;-81
2024/04/02 01:21:44;;;;;;;0.50;0.43;;;8.80;99.90;;;;;;5075705;28;20209;-80
2024/04/02 01:24:11;;;;;;;0.60;0.50;;;8.80;99.90;;;;;;5082042;28;20191;-78
2024/04/02 01:26:38;;;;;;;0.60;0.50;;;8.80;99.90;;;;;;5080752;28;20744;-79
2024/04/02 01:29:06;;;;;;;0.60;0.60;;;8.70;99.90;;;;;;5084213;28;20228;-82
2024/04/02 01:31:31;;;;;;;1.60;0.60;;;8.70;99.90;;;;;;5079828;28;20190;-81
2024/04/02 01:33:58;;;;;;;5.40;0.77;;;8.70;99.90;;;;;;5078982;28;20193;-81
2024/04/02 01:36:24;;;;;;;0.80;0.80;;;8.70;99.90;;;;;;5079358;28;20194;-81
2024/04/02 01:38:52;;;;;;;0.50;0.40;;;8.70;99.90;;;;;;5079717;28;20705;-80
2024/04/02 01:41:18;;;;;;;0.70;0.50;;;8.60;99.90;;;;;;5079107;28;20432;-80
2024/04/02 01:43:46;;;;;;;1.37;0.70;;;8.60;99.90;;;;;;5079004;28;20194;-81
2024/04/02 01:46:13;;;;;;;0.50;0.50;;;8.60;99.90;;;;;;5079172;28;20464;-81
2024/04/02 01:48:40;;;;;;;0.90;0.65;;;8.60;99.90;;;;;;5078837;28;20214;-82
2024/04/02 01:51:05;;;;;;;0.50;0.50;;;8.70;99.90;;;;;;5078807;28;20208;-81
2024/04/02 01:53:32;;;;;;;0.60;0.60;;;8.80;99.90;;;;;;5078290;28;20194;-79
2024/04/02 01:56:00;;;;;;;0.50;0.47;;;8.80;99.90;;;;;;5075699;28;20214;-79
2024/04/02 01:58:28;;;;;;;0.70;0.70;;;8.80;99.90;;;;;;5075985;28;20210;-79
2024/04/02 02:00:56;;;;;;;1.20;0.75;;;8.80;99.90;;;;;;5075760;28;20213;-79
2024/04/02 02:03:23;;;;;;;0.50;0.50;;;8.80;99.90;;;;;;5075583;28;20201;-79
2024/04/02 02:05:50;;;;;;;0.50;0.40;;;8.80;99.90;;;;;;5075371;28;20209;-80
2024/04/02 02:08:17;;;;;;;0.82;0.77;;;8.80;99.90;;;;;;5074927;28;20225;-79
2024/04/02 02:10:43;;;;;;;0.90;0.50;;;8.80;99.90;;;;;;5075563;28;20568;-79
2024/04/02 02:13:10;;;;;;;0.50;0.40;;;8.80;99.90;;;;;;5075263;28;20191;-80
2024/04/02 02:15:36;;;;;;;1.45;0.73;;;8.80;99.90;;;;;;5075256;28;20198;-80
2024/04/02 02:18:05;;;;;;;0.77;0.63;;;8.80;99.90;;;;;;5075064;28;20297;-80
2024/04/02 02:20:32;;;;;;;0.93;0.93;;;8.80;99.90;;;;;;5075068;28;20198;-80
2024/04/02 02:23:00;;;;;;;3.65;1.60;;;8.80;99.90;;;;;;5078506;28;20665;-81
2024/04/02 02:25:28;;;;;;;0.70;0.70;;;8.80;99.90;;;;;;5078235;28;20190;-81
2024/04/02 02:27:56;;;;;;;0.50;0.50;;;8.80;99.90;;;;;;5077723;28;20218;-81
2024/04/02 02:30:22;;;;;;;0.98;0.63;;;8.80;99.90;;;;;;5077966;28;20194;-81
2024/04/02 02:32:49;;;;;;;0.50;0.43;;;8.80;99.90;;;;;;5077954;28;20206;-81
2024/04/02 02:35:16;;;;;;;0.50;0.40;;;8.70;99.90;;;;;;5077431;28;20466;-80
2024/04/02 02:37:43;;;;;;;0.80;0.55;;;8.80;99.90;;;;;;5077799;28;20884;-81
2024/04/02 02:40:10;;;;;;;0.68;0.60;;;8.80;99.90;;;;;;5077405;28;20190;-81
2024/04/02 02:42:37;;;;;;;0.50;0.40;;;8.80;99.90;;;;;;5077477;28;20187;-80
2024/04/02 02:45:04;;;;;;;0.50;0.50;;;8.70;99.90;;;;;;5077742;28;20199;-81
2024/04/02 02:47:31;;;;;;;1.58;1.48;;;8.70;99.90;;;;;;5077049;28;20720;-81
2024/04/02 02:49:56;;;;;;;0.50;0.50;;;8.70;99.90;;;;;;5077565;28;20205;-81
2024/04/02 02:52:25;;;;;;;0.60;0.50;;;8.70;99.90;;;;;;5078124;28;20195;-81
2024/04/02 02:54:50;;;;;;;0.50;0.40;;;8.70;99.90;;;;;;5077783;28;20198;-81
2024/04/02 02:57:17;;;;;;;0.60;0.50;;;8.70;99.90;;;;;;5077202;28;20237;-81
2024/04/02 02:59:46;;;;;;;0.70;0.65;;;8.60;99.90;;;;;;5077933;28;20202;-80
2024/04/02 03:02:12;;;;;;;0.50;0.47;;;8.70;99.90;;;;;;5080938;28;20277;-78
2024/04/02 03:04:38;;;;;;;0.63;0.60;;;8.70;99.90;;;;;;5084829;28;20190;-78
2024/04/02 03:07:05;;;;;;;0.60;0.50;;;8.70;99.90;;;;;;5079302;28;20264;-81
2024/04/02 03:09:35;;;;;;;0.68;0.60;;;8.70;99.90;;;;;;5077403;28;20201;-80
2024/04/02 03:12:04;;;;;;;0.50;0.40;;;8.70;99.90;;;;;;5077072;28;20195;-81
2024/04/02 03:14:31;;;;;;;1.08;0.95;;;8.70;99.90;;;;;;5076883;28;20205;-81
2024/04/02 03:16:58;;;;;;;0.80;0.75;;;8.70;99.90;;;;;;5076551;28;20229;-81
2024/04/02 03:19:25;;;;;;;0.60;0.60;;;8.70;99.90;;;;;;5077144;28;20691;-80
2024/04/02 03:21:52;;;;;;;0.63;0.63;;;8.70;99.90;;;;;;5077436;28;20186;-80
2024/04/02 03:24:18;;;;;;;2.05;0.63;;;8.60;99.90;;;;;;5077257;28;20202;-80
2024/04/02 03:26:47;;;;;;;1.17;0.87;;;8.60;99.90;;;;;;5076972;28;20214;-81
2024/04/02 03:29:14;;;;;;;0.50;0.50;;;8.60;99.90;;;;;;5077089;28;20222;-81
2024/04/02 03:31:41;;;;;;;1.05;0.98;;;8.50;99.90;;;;;;5076810;28;20194;-81
2024/04/02 03:34:07;;;;;;;0.50;0.40;;;8.40;99.90;;;;;;5077093;28;20221;-80
2024/04/02 03:36:36;;;;;;;0.50;0.40;;;8.40;99.90;;;;;;5077098;28;20190;-81
2024/04/02 03:39:05;;;;;;;0.50;0.40;;;8.40;99.90;;;;;;5077176;28;20230;-81
2024/04/02 03:41:35;;;;;;;0.57;0.52;;;8.30;99.90;;;;;;5076937;28;20814;-79
2024/04/02 03:44:05;;;;;;;1.98;1.45;;;8.30;99.90;;;;;;5077273;28;20194;-81
2024/04/02 03:46:31;;;;;;;0.50;0.40;;;8.30;99.90;;;;;;5078048;28;20218;-80
2024/04/02 03:48:57;;;;;;;0.50;0.40;;;8.30;99.90;;;;;;5078498;28;20577;-81
2024/04/02 03:51:23;;;;;;;4.35;0.80;;;8.30;99.90;;;;;;5077163;28;20479;-81
2024/04/02 03:53:50;;;;;;;2.60;0.50;;;8.30;99.90;;;;;;5077153;28;20194;-81
2024/04/02 03:56:16;;;;;;;1.23;0.63;;;8.30;99.90;;;;;;5078551;28;20451;-83
2024/04/02 03:58:43;;;;;;;0.60;0.50;;;8.30;99.90;;;;;;5080060;28;20214;-82
2024/04/02 04:01:10;;;;;;;16.50;1.25;;;8.40;99.90;;;;;;5078045;28;20202;-82
2024/04/02 04:03:38;;;;;;;0.75;0.50;;;8.40;99.90;;;;;;5080525;28;20202;-81
2024/04/02 04:06:05;;;;;;;5.45;0.90;;;8.40;99.90;;;;;;5078463;28;20642;-82
2024/04/02 04:08:37;;;;;;;0.50;0.40;;;8.40;99.90;;;;;;5079413;28;20214;-82
2024/04/02 04:11:03;;;;;;;0.50;0.40;;;8.40;99.90;;;;;;5081005;28;20221;-81
2024/04/02 04:13:30;;;;;;;0.60;0.60;;;8.40;99.90;;;;;;5080757;28;20201;-84
2024/04/02 04:15:58;;;;;;;3.35;1.13;;;8.40;99.90;;;;;;5080869;28;20568;-84
2024/04/02 04:18:26;;;;;;;0.60;0.57;;;8.40;99.90;;;;;;5079293;28;20293;-84
2024/04/02 04:20:53;;;;;;;0.50;0.40;;;8.50;99.90;;;;;;5080046;28;20197;-83
2024/04/02 04:23:20;;;;;;;1.50;0.93;;;8.50;99.90;;;;;;5081248;28;20222;-83
2024/04/02 04:25:47;;;;;;;5.10;0.90;;;8.50;99.90;;;;;;5080319;28;20197;-85
2024/04/02 04:28:14;;;;;;;1.05;0.98;;;8.60;99.90;;;;;;5079561;28;20226;-83
2024/04/02 04:30:40;;;;;;;0.60;0.60;;;8.60;99.90;;;;;;5080244;28;20198;-83
2024/04/02 04:33:08;;;;;;;0.70;0.57;;;8.60;99.90;;;;;;5080234;28;20192;-83
2024/04/02 04:35:35;;;;;;;0.70;0.70;;;8.70;99.90;;;;;;5080489;28;20210;-83
2024/04/02 04:38:02;;;;;;;1.92;1.40;;;8.70;99.90;;;;;;5079931;28;20216;-83
2024/04/02 04:40:27;;;;;;;1.42;0.85;;;8.70;99.90;;;;;;5080496;28;20210;-84
2024/04/02 04:42:54;;;;;;;0.50;0.43;;;8.70;99.90;;;;;;5081753;28;20257;-83
2024/04/02 04:45:20;;;;;;;0.50;0.40;;;8.70;99.90;;;;;;5080157;28;20194;-84
2024/04/02 04:47:47;;;;;;;0.97;0.97;;;8.70;99.90;;;;;;5080767;28;20229;-83
2024/04/02 04:50:12;;;;;;;1.02;0.80;;;8.70;99.90;;;;;;5079303;28;20688;-83
2024/04/02 04:52:40;;;;;;;1.27;0.90;;;8.70;99.90;;;;;;5076660;28;20281;-82
2024/04/02 04:55:06;;;;;;;0.50;0.40;;;8.70;99.90;;;;;;5079776;28;20516;-83
2024/04/02 04:57:33;;;;;;;0.60;0.50;;;8.80;99.90;;;;;;5078285;28;20710;-82
2024/04/02 04:59:59;;;;;;;0.80;0.55;;;8.80;99.90;;;;;;5078836;28;20206;-83
2024/04/02 05:02:25;;;;;;;0.50;0.50;;;8.80;99.90;;;;;;5077358;28;20216;-84
2024/04/02 05:04:51;;;;;;;2.72;2.53;;;8.80;99.90;;;;;;5076755;28;20194;-82
2024/04/02 05:07:33;;;;;;;0.50;0.50;;;8.90;99.90;;;;;;5075562;28;20228;-82
2024/04/02 05:10:01;;;;;;;1.58;0.95;;;8.90;99.90;;;;;;5075690;28;20584;-82
2024/04/02 05:12:27;;;;;;;0.50;0.40;;;8.80;99.90;;;;;;5077535;28;20190;-80
2024/04/02 05:14:53;;;;;;;1.70;0.60;;;8.80;99.90;;;;;;5075192;28;20199;-80
2024/04/02 05:17:20;;;;;;;0.85;0.50;;;8.80;99.90;;;;;;5073314;28;20861;-81
2024/04/02 05:19:46;;;;;;;0.85;0.73;;;8.80;99.90;;;;;;5073059;28;20198;-79
2024/04/02 05:22:13;;;;;;;1.05;0.57;;;8.70;99.90;;;;;;5072649;28;20232;-81
2024/04/02 05:24:39;;;;;;;0.80;0.80;;;8.50;99.90;;;;;;5072575;28;20190;-81
2024/04/02 05:27:07;;;;;;;1.27;0.60;;;8.50;99.90;;;;;;5072726;28;20580;-80
2024/04/02 05:29:33;;;;;;;0.50;0.50;;;8.50;99.90;;;;;;5073048;28;20194;-81
2024/04/02 05:32:00;;;;;;;1.67;0.93;;;8.40;99.90;;;;;;5073098;28;20208;-81
2024/04/02 05:34:25;;;;;;;11.10;0.90;;;8.40;99.90;;;;;;5072694;28;20252;-82
2024/04/02 05:36:52;;;;;;;0.50;0.50;;;8.40;99.90;;;;;;5072696;28;20371;-82
2024/04/02 05:39:18;;;;;;;0.50;0.40;;;8.40;99.90;;;;;;5074580;28;20453;-81
2024/04/02 05:41:45;;;;;;;1.73;1.05;;;8.40;99.90;;;;;;5079362;28;20190;-82
2024/04/02 05:44:12;;;;;;;0.50;0.40;;;8.40;99.90;;;;;;5085795;28;20195;-81
2024/04/02 05:46:39;;;;;;;1.00;0.70;;;8.50;99.90;;;;;;5083029;28;20217;-81
2024/04/02 05:49:05;;;;;;;0.50;0.40;;;8.60;99.90;;;;;;5083023;28;20210;-82
2024/04/02 05:51:31;;;;;;;0.50;0.50;;;8.60;99.90;;;;;;5078667;28;20201;-82
2024/04/02 05:53:57;;;;;;;1.02;1.02;;;8.60;99.90;;;;;;5075434;28;20202;-82
2024/04/02 05:56:24;;;;;;;0.60;0.60;;;8.60;99.90;;;;;;5075143;28;20201;-82
2024/04/02 05:58:51;;;;;;;0.68;0.68;;;8.70;99.90;;;;;;5074306;28;20218;-82
2024/04/02 06:01:20;;;;;;;0.70;0.60;;;8.70;99.90;;;;;;5074522;28;20228;-82
2024/04/02 06:03:45;;;;;;;0.50;0.40;;;8.70;99.90;;;;;;5074034;28;20651;-82
2024/04/02 06:06:12;;;;;;;0.50;0.50;;;8.70;99.90;;;;;;5074745;28;20198;-82
2024/04/02 06:08:38;;;;;;;1.45;1.15;;;8.80;99.90;;;;;;5074359;28;20222;-83
2024/04/02 06:11:06;;;;;;;5.23;1.10;;;8.80;99.90;;;;;;5074505;28;20201;-83
2024/04/02 06:13:33;;;;;;;0.50;0.40;;;8.80;99.90;;;;;;5074649;28;20195;-83
2024/04/02 06:16:00;;;;;;;1.48;0.52;;;8.80;99.90;;;;;;5078385;28;20542;-80
2024/04/02 06:18:29;;;;;;;3.00;0.70;;;8.80;99.90;;;;;;5079787;28;20228;-83
2024/04/02 06:21:00;;;;;;;0.50;0.50;;;8.80;99.90;;;;;;5077020;28;20195;-82
2024/04/02 06:23:27;;;;;;;1.00;0.60;;;8.90;99.90;;;;;;5077583;28;20197;-82
2024/04/02 06:25:53;;;;;;;0.80;0.80;;;8.90;99.90;;;;;;5078640;28;20806;-82
2024/04/02 06:28:20;;;;;;;1.65;1.20;;;9.00;99.90;;;;;;5079571;28;20246;-82
2024/04/02 06:30:46;;;;;;;0.77;0.77;;;9.00;99.90;;;;;;5078437;28;20619;-83
2024/04/02 06:33:12;;;;;;;0.50;0.43;;;9.10;99.90;;;;;;5080245;28;20194;-82
2024/04/02 06:35:40;;;;;;;0.50;0.50;;;9.20;99.90;;;;;;5078872;28;20202;-83
2024/04/02 06:38:08;;;;;;;0.50;0.40;;;9.20;99.90;;;;;;5078585;28;20210;-82
2024/04/02 06:40:33;;;;;;;1.40;0.70;;;9.30;99.90;;;;;;5078631;28;20565;-83
2024/04/02 06:43:00;;;;;;;0.70;0.50;;;9.30;99.90;;;;;;5078300;28;20439;-81
2024/04/02 06:45:26;;;;;;;3.37;2.10;;;9.40;99.90;;;;;;5077744;28;20198;-82
2024/04/02 06:47:53;;;;;;;1.80;1.10;;;9.50;99.90;;;;;;5078071;28;20500;-81
2024/04/02 06:50:20;;;;;;;0.60;0.60;;;9.50;99.90;;;;;;5077453;28;20198;-81
2024/04/02 06:52:48;;;;;;;0.90;0.70;;;9.50;99.90;;;;;;5076725;28;20459;-81
2024/04/02 06:55:14;;;;;;;2.40;1.00;;;9.60;99.90;;;;;;5077451;28;20433;-82
2024/04/02 06:57:42;;;;;;;0.50;0.40;;;9.70;99.90;;;;;;5078407;28;20488;-81
2024/04/02 07:00:09;;;;;;;1.67;0.70;;;9.80;99.90;;;;;;5076936;28;20436;-81
2024/04/02 07:02:36;;;;;;;0.77;0.67;;;9.90;99.90;;;;;;5075267;28;20953;-81
2024/04/02 07:05:03;;;;;;;0.83;0.83;;;9.90;99.90;;;;;;5075637;28;20519;-80
2024/04/02 07:07:31;;;;;;;5.80;1.27;;;9.90;99.90;;;;;;5075351;28;20476;-81
2024/04/02 07:09:59;;;;;;;2.13;1.93;;;10.00;99.90;;;;;;5074902;28;20980;-81
2024/04/02 07:12:26;;;;;;;1.77;0.60;;;10.00;99.90;;;;;;5074471;28;20777;-81
2024/04/02 07:14:52;;;;;;;1.20;1.10;;;10.00;99.90;;;;;;5074644;28;20532;-83
2024/04/02 07:17:19;;;;;;;8.43;0.70;;;10.00;99.90;;;;;;5075463;28;20463;-82
2024/04/02 07:19:46;;;;;;;1.53;1.30;;;10.10;99.90;;;;;;5081254;28;20444;-81
2024/04/02 07:22:17;;;;;;;1.00;1.00;;;10.10;99.90;;;;;;5083191;28;20800;-83
2024/04/02 07:24:42;;;;;;;2.17;1.10;;;10.10;99.90;;;;;;5082251;28;20441;-82
2024/04/02 07:27:13;;;;;;;1.70;0.87;;;10.10;99.90;;;;;;5086319;28;20525;-83
2024/04/02 07:29:38;;;;;;;0.77;0.77;;;10.10;99.90;;;;;;5084830;28;20198;-83
2024/04/02 07:32:06;;;;;;;0.50;0.50;;;10.10;99.90;;;;;;5082641;28;20990;-83
2024/04/02 07:34:34;;;;;;;0.50;0.40;;;10.10;99.90;;;;;;5082981;28;20190;-83
2024/04/02 07:37:01;;;;;;;1.40;1.00;;;10.20;99.90;;;;;;5084300;28;20443;-83
2024/04/02 07:39:27;;;;;;;0.80;0.80;;;10.20;99.90;;;;;;5080849;28;20950;-82
2024/04/02 07:41:53;;;;;;;0.50;0.40;;;10.20;99.90;;;;;;5082812;28;20442;-80
2024/04/02 07:44:21;;;;;;;0.60;0.60;;;10.30;99.90;;;;;;5081731;28;20213;-81
2024/04/02 07:46:50;;;;;;;0.77;0.77;;;10.30;99.90;;;;;;5083877;28;20520;-80
2024/04/02 07:49:18;;;;;;;0.50;0.50;;;10.30;99.90;;;;;;5085259;28;20459;-81
2024/04/02 07:51:54;;;;;;;0.50;0.40;;;10.30;99.90;;;;;;5083584;28;20443;-80
2024/04/02 07:54:20;;;;;;;2.60;1.43;;;10.20;99.90;;;;;;5083848;28;20461;-80
2024/04/02 07:56:49;;;;;;;0.50;0.40;;;10.20;99.90;;;;;;5084847;28;20868;-80
2024/04/02 07:59:15;;;;;;;2.43;2.23;;;10.30;99.90;;;;;;5087267;28;20705;-81
2024/04/02 08:01:47;;;;;;;0.50;0.40;;;10.30;99.90;;;;;;5085346;28;20447;-81
2024/04/02 08:04:13;;;;;;;2.10;1.33;;;10.30;99.90;;;;;;5083611;28;20210;-80
2024/04/02 08:06:42;;;;;;;1.30;1.03;;;10.30;99.90;;;;;;5081146;28;20630;-81
2024/04/02 08:09:09;;;;;;;0.90;0.50;;;10.20;99.90;;;;;;5080827;28;20222;-80
2024/04/02 08:11:36;;;;;;;4.53;0.70;;;10.20;99.90;;;;;;5082614;28;20454;-80
2024/04/02 08:14:03;;;;;;;0.50;0.50;;;10.30;99.90;;;;;;5083529;28;20437;-79
2024/04/02 08:16:30;;;;;;;0.60;0.60;;;10.20;99.90;;;;;;5081070;28;20966;-79
2024/04/02 08:18:58;;;;;;;1.83;1.27;;;10.20;99.90;;;;;;5086279;28;20502;-79
2024/04/02 08:21:24;;;;;;;1.63;0.70;;;10.20;99.90;;;;;;5085398;28;20433;-81
2024/04/02 08:23:50;;;;;;;1.17;0.90;;;10.30;99.90;;;;;;5078579;28;20443;-81
2024/04/02 08:26:19;;;;;;;1.07;0.93;;;10.30;99.90;;;;;;5077933;28;20498;-81
2024/04/02 08:28:45;;;;;;;0.60;0.60;;;10.30;99.90;;;;;;5078200;28;20476;-81
2024/04/02 08:31:13;;;;;;;0.60;0.60;;;10.30;99.90;;;;;;5077923;28;20451;-81
2024/04/02 08:33:39;;;;;;;8.13;1.73;;;10.30;99.90;;;;;;5078116;28;20440;-80
2024/04/02 08:36:07;;;;;;;1.60;1.50;;;10.30;99.90;;;;;;5077548;28;20444;-81
2024/04/02 08:38:33;;;;;;;0.70;0.70;;;10.30;99.90;;;;;;5077488;28;20465;-80
2024/04/02 08:41:04;;;;;;;0.50;0.40;;;10.30;99.90;;;;;;5077997;28;20449;-81
2024/04/02 08:43:31;;;;;;;3.70;1.07;;;10.40;99.90;;;;;;5078171;28;20429;-81
2024/04/02 08:45:59;;;;;;;0.50;0.43;;;10.40;99.90;;;;;;5077708;28;20440;-81
2024/04/02 08:48:25;;;;;;;2.33;2.13;;;10.40;99.90;;;;;;5076507;28;20843;-80
2024/04/02 08:50:53;;;;;;;0.60;0.50;;;10.40;99.90;;;;;;5078529;28;20793;-80
2024/04/02 08:53:20;;;;;;;2.70;0.80;;;10.40;99.90;;;;;;5078082;28;20440;-81
2024/04/02 08:55:49;;;;;;;1.23;1.13;;;10.50;99.90;;;;;;5078354;28;20444;-80
2024/04/02 08:58:14;;;;;;;0.50;0.40;;;10.50;99.90;;;;;;5078264;28;20453;-81
2024/04/02 09:00:42;;;;;;;0.87;0.67;;;10.50;99.90;;;;;;5076547;28;20441;-81
2024/04/02 09:03:10;;;;;;;0.50;0.40;;;10.50;99.90;;;;;;5077969;28;20444;-81
2024/04/02 09:05:37;;;;;;;0.50;0.40;;;10.50;99.90;;;;;;5077366;28;20463;-81
2024/04/02 09:08:06;;;;;;;0.57;0.50;;;10.60;99.90;;;;;;5078315;28;20487;-80
2024/04/02 09:10:36;;;;;;;0.50;0.50;;;10.60;99.90;;;;;;5078520;28;20472;-80
2024/04/02 09:13:01;;;;;;;0.50;0.40;;;10.60;99.90;;;;;;5077541;28;20915;-80
2024/04/02 09:15:29;;;;;;;0.80;0.60;;;10.70;99.90;;;;;;5078186;28;20436;-80
2024/04/02 09:17:55;;;;;;;7.60;0.70;;;10.60;99.90;;;;;;5076711;28;20214;-81
2024/04/02 09:20:24;;;;;;;0.50;0.40;;;10.60;99.90;;;;;;5078498;28;20444;-81
2024/04/02 09:22:52;;;;;;;0.57;0.43;;;10.80;99.90;;;;;;5078329;28;20445;-79
2024/04/02 09:25:21;;;;;;;0.80;0.73;;;10.90;99.90;;;;;;5078750;28;20442;-81
2024/04/02 09:27:48;;;;;;;0.50;0.40;;;10.90;99.90;;;;;;5078060;28;20497;-81
2024/04/02 09:30:16;;;;;;;1.97;0.70;;;11.00;99.90;;;;;;5077619;28;20455;-82
2024/04/02 09:32:43;;;;;;;0.60;0.50;;;11.10;99.90;;;;;;5077202;28;20880;-81
2024/04/02 09:35:13;;;;;;;1.13;0.70;;;11.00;99.90;;;;;;5077839;28;20890;-81
2024/04/02 09:37:42;;;;;;;0.50;0.50;;;11.00;99.90;;;;;;5076012;28;20455;-80
2024/04/02 09:40:11;;;;;;;1.87;0.60;;;11.00;99.90;;;;;;5078332;28;20464;-81
2024/04/02 09:42:39;;;;;;;0.50;0.40;;;11.00;99.90;;;;;;5078118;28;20444;-81
2024/04/02 09:45:10;;;;;;;0.60;0.60;;;11.10;99.90;;;;;;5077855;28;20432;-81
2024/04/02 09:47:37;;;;;;;3.33;0.80;;;11.10;99.90;;;;;;5078685;28;20987;-80
2024/04/02 09:50:04;;;;;;;0.50;0.50;;;11.00;99.90;;;;;;5081162;28;20442;-80
2024/04/02 09:52:30;;;;;;;2.20;2.00;;;11.00;99.90;;;;;;5082658;28;20444;-80
2024/04/02 09:55:01;;;;;;;0.93;0.93;;;11.00;99.90;;;;;;5081340;28;20474;-80
2024/04/02 09:57:29;;;;;;;4.63;0.70;;;11.00;99.90;;;;;;5083854;28;20456;-79
2024/04/02 09:59:57;;;;;;;1.00;0.70;;;11.10;99.90;;;;;;5086386;28;20806;-80
2024/04/02 10:02:28;;;;;;;2.00;0.50;;;11.30;99.90;;;;;;5083695;28;20425;-81
2024/04/02 10:04:56;;;;;;;1.13;1.03;;;11.50;99.90;;;;;;5082228;28;20429;-81
2024/04/02 10:07:23;;;;;;;1.57;1.07;;;11.50;99.90;;;;;;5083977;28;20460;-80
2024/04/02 10:10:00;;;;;;;2.40;1.10;;;11.30;99.90;;;;;;5086613;28;20443;-80
2024/04/02 10:12:28;;;;;;;0.50;0.40;;;11.20;99.90;;;;;;5083927;28;20485;-80
2024/04/02 10:14:54;;;;;;;1.30;0.70;;;11.30;99.90;;;;;;5079836;28;20433;-81
2024/04/02 10:17:21;;;;;;;1.53;1.13;;;11.30;99.90;;;;;;5079921;28;20452;-79
2024/04/02 10:19:50;;;;;;;0.60;0.60;;;11.20;99.90;;;;;;5079282;28;20433;-81
2024/04/02 10:22:31;;;;;;;0.60;0.60;;;11.20;99.90;;;;;;5078802;28;20984;-80
2024/04/02 10:25:06;;;;;;;0.50;0.40;;;11.20;99.90;;;;;;5079024;28;20455;-81
2024/04/02 10:27:35;;;;;;;1.03;0.60;;;11.40;99.90;;;;;;5079342;28;20444;-80
2024/04/02 10:30:01;;;;;;;1.00;0.70;;;11.50;99.90;;;;;;5085289;28;20432;-79
2024/04/02 10:32:34;;;;;;;1.03;0.80;;;11.30;99.90;;;;;;5084714;28;20433;-81
2024/04/02 10:35:01;;;;;;;0.50;0.40;;;11.20;99.90;;;;;;5079664;28;20439;-79
2024/04/02 10:37:27;;;;;;;7.80;1.60;;;11.30;99.90;;;;;;5078138;28;20891;-79
2024/04/02 10:39:57;;;;;;;0.50;0.40;;;11.90;99.90;;;;;;5078061;28;20437;-79
2024/04/02 10:42:23;;;;;;;0.60;0.50;;;12.40;99.90;;;;;;5078675;28;20440;-79
2024/04/02 10:44:50;;;;;;;5.87;1.27;;;12.70;99.90;;;;;;5077893;28;20444;-81
2024/04/02 10:47:17;;;;;;;0.60;0.60;;;12.80;99.90;;;;;;5085829;28;20465;-79
2024/04/02 10:49:47;;;;;;;0.90;0.90;;;12.80;99.90;;;;;;5088898;28;20484;-79
2024/04/02 10:52:15;;;;;;;0.60;0.50;;;12.80;99.90;;;;;;5089180;28;20462;-79
2024/04/02 10:54:41;;;;;;;1.10;0.80;;;12.50;99.90;;;;;;5082814;28;20441;-81
2024/04/02 10:57:09;;;;;;;0.50;0.40;;;12.40;99.90;;;;;;5081195;28;20505;-82
2024/04/02 10:59:37;;;;;;;1.13;1.03;;;12.80;99.90;;;;;;5078023;28;20489;-79
2024/04/02 11:02:14;;;;;;;2.40;1.00;;;13.30;99.90;;;;;;5076720;28;20461;-80
2024/04/02 11:04:39;;;;;;;10.60;2.50;;;13.50;99.90;;;;;;5076642;28;20469;-81
2024/04/02 11:07:10;;;;;;;4.50;1.47;;;13.30;99.90;;;;;;5076160;28;20433;-79
2024/04/02 11:09:38;;;;;;;0.50;0.40;;;13.30;99.90;;;;;;5076134;28;20211;-79
2024/04/02 11:12:07;;;;;;;1.27;0.97;;;13.10;99.90;;;;;;5076099;28;20520;-80
2024/04/02 11:14:33;;;;;;;1.20;1.10;;;13.20;99.90;;;;;;5075725;28;20433;-80
2024/04/02 11:17:00;;;;;;;17.23;1.27;;;13.10;99.90;;;;;;5075321;28;20436;-80
2024/04/02 11:19:26;;;;;;;1.00;0.70;;;12.90;99.90;;;;;;5074694;28;20441;-81
2024/04/02 11:24:57;;;;;;;0.50;0.40;;;12.80;99.90;;;;;;5074272;28;20981;-81
2024/04/02 11:24:58;;;;;;;1.77;0.60;;;12.60;99.90;;;;;;5074779;28;20194;-80
2024/04/02 11:27:25;;;;;;;0.77;0.70;;;12.30;99.90;;;;;;5074958;28;20471;-80
2024/04/02 11:29:54;;;;;;;2.77;1.10;;;12.00;99.90;;;;;;5079833;28;20920;-78
2024/04/02 11:32:20;;;;;;;0.50;0.50;;;11.90;99.90;;;;;;5076310;28;20543;-81
2024/04/02 11:34:56;;;;;;;0.70;0.70;;;12.00;99.90;;;;;;5076286;28;20436;-80
2024/04/02 11:37:22;;;;;;;1.87;1.63;;;11.90;99.90;;;;;;5075929;28;20959;-79
2024/04/02 11:39:52;;;;;;;0.90;0.77;;;11.80;99.90;;;;;;5075798;28;20449;-81
2024/04/02 11:42:19;;;;;;;0.50;0.50;;;11.70;99.90;;;;;;5074142;28;20524;-80
2024/04/02 11:44:46;;;;;;;0.70;0.70;;;11.70;99.90;;;;;;5075184;28;20437;-81
2024/04/02 11:47:14;;;;;;;0.73;0.70;;;11.70;99.90;;;;;;5075409;28;20946;-81
2024/04/02 11:49:41;;;;;;;0.60;0.50;;;11.40;99.90;;;;;;5074899;28;20473;-80
2024/04/02 11:52:08;;;;;;;0.60;0.50;;;11.30;99.90;;;;;;5074785;28;20440;-78
2024/04/02 11:54:34;;;;;;;0.73;0.63;;;11.60;99.90;;;;;;5074249;28;20441;-79
2024/04/02 12:02:36;;;;;;;0.50;0.40;;;11.50;99.90;;;;;;5074036;28;20504;-79
2024/04/02 12:05:03;;;;;;;0.50;0.50;;;11.40;99.90;;;;;;5073826;28;20425;-82
2024/04/02 12:07:30;;;;;;;2.10;0.50;;;11.30;99.90;;;;;;5072821;28;20448;-81
2024/04/02 12:10:00;;;;;;;0.50;0.40;;;11.20;99.90;;;;;;5073110;28;20973;-82
2024/04/02 12:12:29;;;;;;;2.40;0.90;;;11.00;99.90;;;;;;5072114;28;20524;-81
2024/04/02 12:14:57;;;;;;;0.50;0.50;;;10.80;99.90;;;;;;5073041;28;20441;-82
2024/04/02 12:17:24;;;;;;;0.60;0.50;;;10.70;99.90;;;;;;5078250;28;20460;-82
2024/04/02 12:19:52;;;;;;;0.50;0.50;;;10.70;99.90;;;;;;5079443;28;20452;-83
2024/04/02 12:22:18;;;;;;;0.60;0.60;;;10.70;99.90;;;;;;5078235;28;20432;-82
2024/04/02 12:24:45;;;;;;;0.60;0.60;;;10.80;99.90;;;;;;5077493;28;20433;-82
2024/04/02 12:27:11;;;;;;;1.10;0.93;;;10.80;99.90;;;;;;5077858;28;20433;-82
2024/04/02 12:29:39;;;;;;;1.43;1.43;;;10.70;99.90;;;;;;5077959;28;20468;-82
2024/04/02 12:32:08;;;;;;;3.70;1.25;;;10.60;99.90;;;;;;5077742;28;20448;-83
2024/04/02 12:34:34;;;;;;;1.30;1.20;;;10.60;99.90;;;;;;5078171;28;20201;-83
2024/04/02 12:37:01;;;;;;;2.37;1.70;;;10.50;99.90;;;;;;5080421;28;20182;-82
2024/04/02 12:39:29;;;;;;;1.47;0.50;;;10.40;99.90;;;;;;5078286;28;20804;-82
2024/04/02 12:41:56;;;;;;;14.70;1.63;;;10.30;99.90;;;;;;5077962;28;20436;-83
2024/04/02 12:44:23;;;;;;;0.50;0.40;;;10.20;99.90;;;;;;5076217;28;20516;-82
2024/04/02 12:46:51;;;;;;;0.50;0.50;;;10.10;99.90;;;;;;5077919;28;20441;-82
2024/04/02 12:49:18;;;;;;;0.50;0.40;;;10.10;99.90;;;;;;5078713;28;20525;-83
2024/04/02 12:51:45;;;;;;;3.83;1.53;;;9.90;99.90;;;;;;5078662;28;20437;-83
2024/04/02 12:54:12;;;;;;;0.50;0.40;;;9.90;99.90;;;;;;5077723;28;20953;-81
2024/04/02 12:56:39;;;;;;;4.00;0.95;;;9.90;99.90;;;;;;5076972;28;20190;-82
2024/04/02 12:59:07;;;;;;;0.60;0.50;;;9.90;99.90;;;;;;5077965;28;20202;-82